Time;durP1;ratioP1;P1;durP2;ratioP2;P2;SDS_P1;SDS_P2;PMS_P1;PMS_P2;Temp;Humidity;BMP_temperature;BMP_pressure;BME280_temperature;BME280_humidity;BME280_pressure;Samples;Min_cycle;Max_cycle;Signal;HPM_P1;HPM_P2
2023/04/27 00:01:48;;;;;;;6.78;4.10;;;;;;;9.09;32.60;101568.66;5020596;28;20053;-80
2023/04/27 00:04:19;;;;;;;6.88;3.70;;;;;;;9.07;32.33;101565.19;5023853;28;20045;-80
2023/04/27 00:06:55;;;;;;;5.43;3.38;;;;;;;9.05;32.92;101572.59;5024792;28;20111;-80
2023/04/27 00:09:24;;;;;;;6.45;3.58;;;;;;;9.04;32.68;101568.13;5031688;28;20382;-80
2023/04/27 00:11:52;;;;;;;6.20;3.63;;;;;;;9.00;32.60;101564.72;5008877;28;20117;-80
2023/04/27 00:14:20;;;;;;;6.82;3.65;;;;;;;8.98;32.45;101568.56;5027523;28;20104;-79
2023/04/27 00:16:48;;;;;;;6.10;3.70;;;;;;;8.97;32.66;101566.81;5010100;28;20042;-80
2023/04/27 00:19:16;;;;;;;5.45;3.80;;;;;;;8.94;32.77;101567.00;5030030;28;20125;-78
2023/04/27 00:21:45;;;;;;;6.68;3.90;;;;;;;8.92;32.64;101566.22;5011386;28;20046;-79
2023/04/27 00:24:13;;;;;;;6.05;3.97;;;;;;;8.90;32.87;101568.22;5023593;28;20114;-78
2023/04/27 00:26:44;;;;;;;6.97;3.72;;;;;;;8.91;32.80;101572.69;5029896;28;20077;-79
2023/04/27 00:29:12;;;;;;;6.13;3.40;;;;;;;8.82;32.88;101568.75;5018281;28;20439;-80
2023/04/27 00:31:41;;;;;;;6.05;3.55;;;;;;;8.85;32.82;101571.25;5012935;28;20046;-79
2023/04/27 00:34:09;;;;;;;5.85;3.67;;;;;;;8.82;32.92;101567.88;5015848;28;20134;-79
2023/04/27 00:36:42;;;;;;;5.80;3.15;;;;;;;8.81;33.16;101572.44;5022010;28;20701;-80
2023/04/27 00:39:10;;;;;;;6.35;3.60;;;;;;;8.80;33.14;101575.28;5034208;28;20057;-79
2023/04/27 00:41:39;;;;;;;5.88;3.70;;;;;;;8.79;33.26;101585.31;5020696;28;20069;-78
2023/04/27 00:44:08;;;;;;;6.20;3.83;;;;;;;8.78;33.12;101585.41;5007681;28;20153;-80
2023/04/27 00:46:36;;;;;;;6.80;4.03;;;;;;;8.75;33.10;101578.34;5015853;28;20045;-79
2023/04/27 00:49:05;;;;;;;6.95;4.50;;;;;;;8.74;33.19;101575.72;5016592;28;21098;-80
2023/04/27 00:51:33;;;;;;;5.25;3.78;;;;;;;8.71;33.21;101574.94;5016632;28;20084;-80
2023/04/27 00:54:01;;;;;;;6.53;3.88;;;;;;;8.69;33.73;101565.97;5020005;28;20102;-79
2023/04/27 00:56:30;;;;;;;6.18;4.20;;;;;;;8.68;33.19;101563.34;5030486;28;20120;-79
2023/04/27 00:59:01;;;;;;;5.85;4.00;;;;;;;8.64;33.42;101562.69;5039162;28;20060;-79
2023/04/27 01:01:32;;;;;;;6.15;4.03;;;;;;;8.64;33.68;101567.28;5021592;28;20045;-79
2023/04/27 01:04:01;;;;;;;6.43;3.92;;;;;;;8.62;33.49;101575.56;5018851;28;20045;-79
2023/04/27 01:06:30;;;;;;;5.55;3.63;;;;;;;8.62;33.27;101580.13;5019141;28;20045;-80
2023/04/27 01:08:58;;;;;;;6.35;3.85;;;;;;;8.62;33.54;101580.13;5026533;28;20069;-80
2023/04/27 01:11:28;;;;;;;5.60;3.80;;;;;;;8.60;33.47;101563.00;5015643;28;20145;-80
2023/04/27 01:13:56;;;;;;;6.30;3.80;;;;;;;8.59;33.78;101566.69;5011958;28;20295;-82
2023/04/27 01:16:24;;;;;;;6.03;3.97;;;;;;;8.55;33.76;101559.72;5005153;28;20505;-79
2023/04/27 01:18:53;;;;;;;5.72;3.67;;;;;;;8.58;33.75;101567.69;5024228;28;20050;-81
2023/04/27 01:21:23;;;;;;;5.55;3.58;;;;;;;8.55;33.69;101576.09;4985463;28;20378;-81
2023/04/27 01:23:53;;;;;;;5.10;3.35;;;;;;;8.56;33.64;101573.25;5024897;28;20057;-80
2023/04/27 01:26:21;;;;;;;6.10;3.72;;;;;;;8.54;33.80;101571.59;5010493;28;20429;-80
2023/04/27 01:28:49;;;;;;;7.30;3.67;;;;;;;8.52;33.85;101577.16;5003425;28;20072;-80
2023/04/27 01:31:17;;;;;;;4.15;2.85;;;;;;;8.50;33.68;101573.69;5013472;28;20046;-80
2023/04/27 01:33:46;;;;;;;5.25;3.25;;;;;;;8.49;33.98;101573.78;5044976;28;20041;-80
2023/04/27 01:36:14;;;;;;;6.53;3.90;;;;;;;8.47;33.71;101573.00;5023311;28;20108;-80
2023/04/27 01:38:43;;;;;;;6.05;3.80;;;;;;;8.46;33.83;101571.25;5024078;28;20042;-80
2023/04/27 01:41:14;;;;;;;5.25;3.40;;;;;;;8.45;33.87;101575.81;5026125;28;20050;-79
2023/04/27 01:43:42;;;;;;;4.57;3.05;;;;;;;8.43;33.67;101574.16;5011663;28;20069;-80
2023/04/27 01:46:14;;;;;;;5.13;3.17;;;;;;;8.42;34.03;101578.78;5025153;28;20508;-80
2023/04/27 01:48:42;;;;;;;6.40;3.35;;;;;;;8.37;33.65;101582.78;5007796;28;20130;-80
2023/04/27 01:51:11;;;;;;;5.28;3.13;;;;;;;8.36;33.59;101581.00;5013350;28;20061;-80
2023/04/27 01:53:38;;;;;;;5.00;3.10;;;;;;;8.35;33.86;101588.31;5046778;28;20128;-79
2023/04/27 01:56:06;;;;;;;4.95;3.25;;;;;;;8.34;33.86;101587.44;5017756;28;20045;-80
2023/04/27 01:58:36;;;;;;;5.50;3.33;;;;;;;8.33;33.93;101593.91;5032331;28;20041;-80
2023/04/27 02:01:04;;;;;;;5.10;3.13;;;;;;;8.30;33.71;101595.94;5025342;28;20049;-80
2023/04/27 02:03:39;;;;;;;5.28;3.17;;;;;;;8.29;33.84;101594.19;5023990;28;20060;-81
2023/04/27 02:06:09;;;;;;;5.25;3.05;;;;;;;8.24;33.81;101591.78;5035543;28;20077;-81
2023/04/27 02:08:37;;;;;;;4.82;3.00;;;;;;;8.23;33.88;101594.59;5005254;28;20058;-81
2023/04/27 02:11:06;;;;;;;5.57;3.30;;;;;;;8.23;33.64;101600.06;5009723;28;20536;-81
2023/04/27 02:13:33;;;;;;;5.20;3.25;;;;;;;8.20;34.05;101600.25;5000196;28;20104;-80
2023/04/27 02:16:03;;;;;;;5.43;2.72;;;;;;;8.19;33.76;101598.50;5004782;28;20045;-80
2023/04/27 02:18:32;;;;;;;5.15;2.80;;;;;;;8.17;33.73;101595.03;5013190;28;20050;-81
2023/04/27 02:21:00;;;;;;;4.45;3.30;;;;;;;8.15;33.73;101588.78;5024898;28;20046;-80
2023/04/27 02:23:28;;;;;;;5.07;2.83;;;;;;;8.13;33.87;101597.06;5027179;28;20041;-80
2023/04/27 02:25:56;;;;;;;6.00;3.03;;;;;;;8.10;33.85;101594.50;5027495;28;20045;-80
2023/04/27 02:28:24;;;;;;;7.78;2.83;;;;;;;8.09;34.00;101591.88;5019605;28;20141;-79
2023/04/27 02:30:53;;;;;;;5.10;2.78;;;;;;;8.07;33.63;101593.84;5026014;28;20100;-80
2023/04/27 02:33:22;;;;;;;4.78;2.92;;;;;;;8.06;34.00;101598.41;5029562;28;20045;-79
2023/04/27 02:35:50;;;;;;;4.47;2.70;;;;;;;8.03;33.97;101593.16;5029691;28;20046;-79
2023/04/27 02:38:18;;;;;;;4.15;2.60;;;;;;;8.00;34.02;101593.38;5023818;28;20081;-80
2023/04/27 02:40:46;;;;;;;6.55;2.55;;;;;;;7.99;33.90;101597.06;5017650;28;20046;-79
2023/04/27 02:43:14;;;;;;;5.45;2.70;;;;;;;7.99;33.70;101590.72;5021681;28;20386;-80
2023/04/27 02:45:42;;;;;;;4.38;2.85;;;;;;;7.95;34.11;101587.31;5018721;28;20053;-78
2023/04/27 02:48:10;;;;;;;5.30;2.83;;;;;;;7.93;33.93;101587.41;5006561;28;20494;-80
2023/04/27 02:50:41;;;;;;;8.52;3.05;;;;;;;7.94;34.32;101583.72;5004197;28;20064;-79
2023/04/27 02:53:10;;;;;;;5.07;2.92;;;;;;;7.90;34.07;101587.63;5016099;28;20049;-80
2023/04/27 02:55:38;;;;;;;5.57;3.22;;;;;;;7.88;34.24;101583.25;5025389;28;20076;-78
2023/04/27 02:58:06;;;;;;;6.45;2.80;;;;;;;7.86;33.87;101583.34;5038143;28;20061;-81
2023/04/27 03:00:34;;;;;;;4.38;2.90;;;;;;;7.85;33.95;101580.72;5018562;28;20433;-81
2023/04/27 03:03:05;;;;;;;5.93;3.17;;;;;;;7.82;34.23;101575.47;5018628;28;20448;-79
2023/04/27 03:05:33;;;;;;;5.57;2.90;;;;;;;7.79;34.08;101570.22;5028358;28;20060;-81
2023/04/27 03:08:02;;;;;;;5.75;3.35;;;;;;;7.76;33.93;101559.53;5012452;28;20042;-81
2023/04/27 03:10:30;;;;;;;5.47;3.30;;;;;;;7.72;34.18;101561.56;5009312;28;20119;-80
2023/04/27 03:12:58;;;;;;;9.77;3.65;;;;;;;7.72;34.18;101566.13;5040960;28;20046;-80
2023/04/27 03:15:28;;;;;;;5.70;2.80;;;;;;;7.70;34.23;101570.81;5036385;28;20037;-81
2023/04/27 03:17:56;;;;;;;5.20;3.10;;;;;;;7.67;34.27;101558.28;5026578;28;20049;-81
2023/04/27 03:20:24;;;;;;;6.78;3.53;;;;;;;7.64;34.33;101569.34;5015188;28;20053;-79
2023/04/27 03:22:53;;;;;;;5.05;3.33;;;;;;;7.62;34.42;101575.88;5011266;28;20061;-80
2023/04/27 03:25:23;;;;;;;6.53;3.45;;;;;;;7.62;34.48;101579.47;5012407;28;20076;-81
2023/04/27 03:27:51;;;;;;;5.28;3.20;;;;;;;7.60;34.65;101583.28;5029961;28;20042;-80
2023/04/27 03:30:19;;;;;;;5.13;3.70;;;;;;;7.57;34.36;101574.34;5007841;28;20046;-80
2023/04/27 03:32:47;;;;;;;6.80;3.78;;;;;;;7.56;34.44;101582.59;5018413;28;20060;-80
2023/04/27 03:35:15;;;;;;;7.25;3.67;;;;;;;7.53;34.48;101571.88;5018087;28;20049;-79
2023/04/27 03:37:45;;;;;;;5.55;3.65;;;;;;;7.52;34.09;101575.56;5033534;28;20111;-80
2023/04/27 03:40:14;;;;;;;6.70;3.88;;;;;;;7.49;34.49;101582.13;5022526;28;20759;-80
2023/04/27 03:42:43;;;;;;;7.03;4.20;;;;;;;7.48;34.69;101574.91;5030763;28;20064;-80
2023/04/27 03:45:11;;;;;;;5.45;3.90;;;;;;;7.44;34.63;101578.78;5023246;28;20041;-81
2023/04/27 03:47:39;;;;;;;5.93;4.00;;;;;;;7.41;34.56;101573.56;5029809;28;20107;-79
2023/04/27 03:50:08;;;;;;;7.88;4.20;;;;;;;7.40;34.57;101573.63;5035726;28;20050;-80
2023/04/27 03:52:36;;;;;;;5.85;3.95;;;;;;;7.38;34.63;101572.84;5029360;28;20059;-81
2023/04/27 03:55:05;;;;;;;6.35;4.05;;;;;;;7.35;34.66;101584.84;5025897;28;20056;-81
2023/04/27 03:57:33;;;;;;;10.50;4.65;;;;;;;7.31;34.54;101575.09;5018217;28;20129;-79
2023/04/27 04:00:05;;;;;;;7.50;4.57;;;;;;;7.32;34.77;101590.47;5010802;28;20073;-79
2023/04/27 04:02:39;;;;;;;7.05;4.50;;;;;;;7.29;34.62;101587.91;5016969;28;20057;-79
2023/04/27 04:05:08;;;;;;;9.07;4.53;;;;;;;7.28;34.62;101594.34;5012307;28;20157;-79
2023/04/27 04:07:36;;;;;;;8.00;4.50;;;;;;;7.27;34.93;101594.47;5038385;28;20038;-79
2023/04/27 04:10:05;;;;;;;7.72;4.88;;;;;;;7.23;34.67;101598.31;5024264;28;20052;-79
2023/04/27 04:12:33;;;;;;;7.47;4.55;;;;;;;7.24;35.01;101602.81;5004934;28;20042;-80
2023/04/27 04:15:03;;;;;;;8.63;4.95;;;;;;;7.23;35.17;101610.09;5001306;28;20069;-81
2023/04/27 04:17:32;;;;;;;8.32;4.95;;;;;;;7.22;35.07;101604.72;5016509;28;20046;-79
2023/04/27 04:20:05;;;;;;;10.15;4.88;;;;;;;7.18;35.01;101601.34;5017104;28;20104;-80
2023/04/27 04:22:33;;;;;;;7.15;4.65;;;;;;;7.15;35.26;101598.78;5000729;28;20065;-80
2023/04/27 04:25:03;;;;;;;8.10;4.72;;;;;;;7.15;34.97;101610.56;5010576;28;20051;-80
2023/04/27 04:27:32;;;;;;;8.20;4.65;;;;;;;7.15;34.74;101606.97;5040904;28;20052;-80
2023/04/27 04:30:00;;;;;;;10.13;5.47;;;;;;;7.12;35.05;101615.31;5023646;28;20037;-80
2023/04/27 04:32:30;;;;;;;11.18;5.28;;;;;;;7.12;35.06;101615.31;5014270;28;20114;-80
2023/04/27 04:35:00;;;;;;;8.90;5.20;;;;;;;7.09;35.33;101615.50;5010470;28;20127;-80
2023/04/27 04:37:29;;;;;;;8.48;5.50;;;;;;;7.08;35.15;101613.75;5025149;28;20135;-80
2023/04/27 04:39:57;;;;;;;9.60;5.07;;;;;;;7.06;35.33;101612.97;5026027;28;20498;-80
2023/04/27 04:42:26;;;;;;;10.05;5.10;;;;;;;7.05;35.43;101622.09;5016732;28;20050;-80
2023/04/27 04:44:54;;;;;;;8.73;5.20;;;;;;;7.04;35.22;101629.38;5007117;28;20073;-80
2023/04/27 04:47:22;;;;;;;8.63;5.15;;;;;;;7.03;35.50;101629.47;5016243;28;20528;-80
2023/04/27 04:49:53;;;;;;;8.63;5.28;;;;;;;7.03;35.46;101624.03;5014488;28;20046;-80
2023/04/27 04:52:21;;;;;;;8.98;4.85;;;;;;;7.00;35.41;101622.41;5015590;28;20417;-80
2023/04/27 04:54:51;;;;;;;7.78;4.97;;;;;;;7.00;35.89;101616.94;5007395;28;20054;-80
2023/04/27 04:57:21;;;;;;;8.03;5.07;;;;;;;6.97;35.81;101617.13;5005968;28;20123;-80
2023/04/27 04:59:49;;;;;;;8.75;4.85;;;;;;;6.99;35.36;101620.63;5003566;28;20050;-81
2023/04/27 05:02:17;;;;;;;8.68;5.40;;;;;;;7.00;35.61;101619.66;5020112;28;20053;-80
2023/04/27 05:04:45;;;;;;;8.95;4.45;;;;;;;7.02;35.39;101622.31;5025414;28;20508;-81
2023/04/27 05:07:16;;;;;;;8.85;5.22;;;;;;;7.04;35.83;101620.34;5031190;28;20048;-80
2023/04/27 05:09:50;;;;;;;8.65;5.20;;;;;;;7.05;35.78;101619.38;5025343;28;20038;-80
2023/04/27 05:12:17;;;;;;;9.10;5.10;;;;;;;7.06;35.56;101622.00;5021214;28;20564;-79
2023/04/27 05:14:46;;;;;;;7.90;4.63;;;;;;;7.09;35.91;101626.41;5020946;28;20531;-80
2023/04/27 05:17:14;;;;;;;8.40;5.13;;;;;;;7.08;35.85;101627.38;5031856;28;20049;-80
2023/04/27 05:19:41;;;;;;;8.27;4.85;;;;;;;7.10;35.80;101633.59;5031667;28;20057;-79
2023/04/27 05:22:10;;;;;;;8.70;4.93;;;;;;;7.12;35.85;101632.53;5031988;28;20081;-80
2023/04/27 05:24:39;;;;;;;7.70;4.40;;;;;;;7.17;36.06;101633.13;5019027;28;20053;-80
2023/04/27 05:27:07;;;;;;;10.60;5.20;;;;;;;7.18;36.10;101637.63;5027958;28;20072;-80
2023/04/27 05:29:35;;;;;;;8.95;5.07;;;;;;;7.22;36.26;101634.69;5025133;28;20048;-81
2023/04/27 05:32:03;;;;;;;8.40;5.13;;;;;;;7.26;36.12;101636.25;5060734;23;20258;-72
2023/04/27 05:34:31;;;;;;;8.90;5.07;;;;;;;7.29;36.33;101644.22;5044994;28;20098;-72
2023/04/27 05:36:59;;;;;;;7.78;4.88;;;;;;;7.34;36.44;101642.13;5042846;28;20057;-72
2023/04/27 05:39:27;;;;;;;8.93;5.05;;;;;;;7.38;36.59;101647.25;5042428;28;20041;-72
2023/04/27 05:41:56;;;;;;;9.98;5.18;;;;;;;7.43;36.49;101652.44;5046660;28;20578;-72
2023/04/27 05:44:27;;;;;;;9.65;5.00;;;;;;;7.46;36.58;101644.94;5047104;28;20064;-72
2023/04/27 05:46:55;;;;;;;9.32;5.63;;;;;;;7.48;36.44;101648.44;5042467;28;20051;-72
2023/04/27 05:49:23;;;;;;;7.63;4.78;;;;;;;7.53;36.49;101648.16;5050249;28;20048;-72
2023/04/27 05:51:52;;;;;;;8.32;5.00;;;;;;;7.56;36.19;101651.56;5046123;28;20128;-73
2023/04/27 05:54:20;;;;;;;8.23;5.38;;;;;;;7.61;36.51;101655.84;5042427;28;20107;-73
2023/04/27 05:56:49;;;;;;;7.90;4.80;;;;;;;7.64;36.19;101651.09;5044611;28;20454;-72
2023/04/27 05:59:18;;;;;;;9.07;5.10;;;;;;;7.70;36.30;101658.88;5040483;28;20120;-72
2023/04/27 06:01:46;;;;;;;9.85;5.00;;;;;;;7.72;36.37;101647.88;5046130;28;20114;-71
2023/04/27 06:04:14;;;;;;;7.32;4.53;;;;;;;7.76;36.38;101652.19;5049926;28;20051;-72
2023/04/27 06:06:43;;;;;;;7.78;4.82;;;;;;;7.80;36.35;101670.94;5049011;28;20144;-72
2023/04/27 06:09:14;;;;;;;8.52;4.68;;;;;;;7.85;36.46;101659.75;5052486;28;20124;-72
2023/04/27 06:11:43;;;;;;;9.20;5.13;;;;;;;7.91;36.55;101662.97;5040319;28;20056;-72
2023/04/27 06:14:11;;;;;;;9.00;4.95;;;;;;;8.00;36.59;101668.81;5043300;28;20045;-72
2023/04/27 06:16:40;;;;;;;7.95;5.03;;;;;;;8.10;36.41;101665.38;5048321;28;20052;-72
2023/04/27 06:19:08;;;;;;;8.07;5.05;;;;;;;8.14;36.23;101661.53;5050248;28;20043;-72
2023/04/27 06:21:37;;;;;;;7.57;4.82;;;;;;;8.19;36.13;101667.53;5049549;28;20506;-72
2023/04/27 06:24:05;;;;;;;9.63;4.93;;;;;;;8.23;35.89;101658.22;5049573;28;20408;-72
2023/04/27 06:26:33;;;;;;;9.43;5.10;;;;;;;8.27;36.01;101662.47;5042268;28;20567;-72
2023/04/27 06:29:06;;;;;;;8.15;4.88;;;;;;;8.33;36.23;101662.09;5048446;28;20041;-72
2023/04/27 06:31:34;;;;;;;7.60;4.45;;;;;;;8.36;36.04;101651.94;5049151;28;20056;-72
2023/04/27 06:34:04;;;;;;;9.20;5.65;;;;;;;8.42;36.12;101659.72;5050234;28;20499;-72
2023/04/27 06:36:32;;;;;;;8.90;4.68;;;;;;;8.45;36.10;101656.78;5049095;28;20080;-72
2023/04/27 06:39:00;;;;;;;8.73;5.25;;;;;;;8.49;36.18;101651.03;5046614;28;20049;-69
2023/04/27 06:41:28;;;;;;;7.18;4.53;;;;;;;8.54;36.32;101653.44;5048426;28;20065;-70
2023/04/27 06:43:56;;;;;;;10.10;5.28;;;;;;;8.60;36.14;101653.03;5049558;28;20528;-70
2023/04/27 06:46:26;;;;;;;8.32;4.85;;;;;;;8.68;36.73;101656.13;5049109;28;20569;-70
2023/04/27 06:48:54;;;;;;;9.25;5.28;;;;;;;8.73;36.21;101661.28;5049761;28;20060;-70
2023/04/27 06:51:23;;;;;;;10.02;5.28;;;;;;;8.83;35.92;101662.44;5049255;28;20118;-70
2023/04/27 06:53:51;;;;;;;8.25;5.63;;;;;;;8.88;36.36;101661.13;5048084;28;20056;-69
2023/04/27 06:56:19;;;;;;;8.23;4.70;;;;;;;8.97;36.11;101655.03;5047652;28;20381;-69
2023/04/27 06:58:47;;;;;;;8.43;5.68;;;;;;;9.05;36.01;101658.13;5049623;28;20131;-69
2023/04/27 07:01:15;;;;;;;8.82;5.05;;;;;;;9.14;36.11;101651.16;5047749;28;20052;-69
2023/04/27 07:03:43;;;;;;;7.80;4.53;;;;;;;9.25;36.09;101655.84;5048934;28;20139;-69
2023/04/27 07:06:11;;;;;;;6.88;4.00;;;;;;;9.36;35.73;101664.19;5048324;28;20053;-69
2023/04/27 07:08:40;;;;;;;7.95;4.43;;;;;;;9.48;35.59;101657.91;5048357;28;20048;-70
2023/04/27 07:11:08;;;;;;;6.18;4.03;;;;;;;9.57;35.56;101661.84;5048061;28;20087;-70
2023/04/27 07:13:36;;;;;;;6.38;4.40;;;;;;;9.67;35.35;101658.34;5047491;28;20057;-70
2023/04/27 07:16:05;;;;;;;8.07;4.22;;;;;;;9.77;35.10;101662.16;5047591;28;20045;-69
2023/04/27 07:18:33;;;;;;;7.55;4.07;;;;;;;9.87;35.15;101651.44;5045735;28;20045;-69
2023/04/27 07:21:01;;;;;;;7.72;4.50;;;;;;;9.96;34.70;101647.19;5045193;28;20100;-69
2023/04/27 07:23:29;;;;;;;5.88;3.92;;;;;;;10.05;34.99;101655.59;5048316;28;20049;-69
2023/04/27 07:25:58;;;;;;;5.93;3.83;;;;;;;10.16;34.41;101652.94;5047212;28;20388;-69
2023/04/27 07:28:28;;;;;;;6.78;4.25;;;;;;;10.24;34.38;101650.50;5047866;28;20052;-71
2023/04/27 07:30:56;;;;;;;6.10;4.00;;;;;;;10.33;34.50;101661.75;5047302;28;20067;-71
2023/04/27 07:33:26;;;;;;;7.55;3.97;;;;;;;10.42;34.13;101656.47;5048662;28;20442;-71
2023/04/27 07:35:55;;;;;;;8.20;4.47;;;;;;;10.50;33.88;101648.56;5048887;28;20123;-71
2023/04/27 07:38:23;;;;;;;6.13;3.75;;;;;;;10.60;34.21;101649.66;5053913;28;20041;-71
2023/04/27 07:40:51;;;;;;;6.35;4.10;;;;;;;10.68;33.83;101651.81;5045703;28;20520;-74
2023/04/27 07:43:21;;;;;;;6.85;3.83;;;;;;;10.79;33.26;101660.09;5045040;28;20036;-74
2023/04/27 07:45:49;;;;;;;7.20;3.85;;;;;;;10.88;33.42;101664.00;5048397;28;20056;-74
2023/04/27 07:48:18;;;;;;;6.30;3.90;;;;;;;10.97;33.35;101657.84;5047429;28;20518;-74
2023/04/27 07:50:46;;;;;;;5.30;3.50;;;;;;;11.06;32.94;101661.75;5045178;28;20029;-74
2023/04/27 07:53:14;;;;;;;5.28;3.60;;;;;;;11.13;32.89;101661.16;5048904;28;20095;-74
2023/04/27 07:55:43;;;;;;;6.35;3.53;;;;;;;11.20;32.37;101658.78;5046411;28;20377;-74
2023/04/27 07:58:11;;;;;;;6.38;3.50;;;;;;;11.27;32.34;101654.59;5041055;28;20045;-74
2023/04/27 08:00:40;;;;;;;6.60;3.65;;;;;;;11.35;32.40;101650.25;5048580;28;20037;-74
2023/04/27 08:03:08;;;;;;;7.10;3.72;;;;;;;11.40;32.49;101657.22;5047045;28;20049;-74
2023/04/27 08:05:36;;;;;;;6.45;3.63;;;;;;;11.46;31.82;101654.91;5048197;28;20044;-74
2023/04/27 08:08:05;;;;;;;5.82;3.33;;;;;;;11.52;31.79;101656.25;5048010;28;20041;-74
2023/04/27 08:10:33;;;;;;;6.50;3.72;;;;;;;11.56;31.74;101647.66;5048371;28;20041;-74
2023/04/27 08:13:01;;;;;;;6.70;3.63;;;;;;;11.62;32.02;101644.50;5046213;28;20041;-74
2023/04/27 08:15:29;;;;;;;5.80;3.55;;;;;;;11.67;31.99;101645.00;5047367;28;20055;-74
2023/04/27 08:17:58;;;;;;;5.63;3.40;;;;;;;11.73;31.12;101649.97;5046615;28;20064;-74
2023/04/27 08:20:26;;;;;;;5.40;3.60;;;;;;;11.76;31.61;101640.63;5047224;28;20511;-74
2023/04/27 08:22:54;;;;;;;6.63;4.28;;;;;;;11.79;30.58;101634.91;5046746;28;20408;-74
2023/04/27 08:25:22;;;;;;;5.18;3.85;;;;;;;11.82;30.66;101633.78;5045743;28;20044;-74
2023/04/27 08:27:50;;;;;;;6.07;3.65;;;;;;;11.85;30.76;101636.28;5046310;28;20052;-74
2023/04/27 08:30:18;;;;;;;6.20;3.58;;;;;;;11.88;31.06;101628.69;5046998;28;20049;-74
2023/04/27 08:32:46;;;;;;;7.10;4.00;;;;;;;11.92;30.76;101629.28;5044209;28;20048;-74
2023/04/27 08:35:15;;;;;;;5.60;3.58;;;;;;;11.98;30.63;101626.03;5039531;28;20052;-74
2023/04/27 08:37:43;;;;;;;6.22;3.67;;;;;;;12.02;30.66;101625.69;5046224;28;20041;-74
2023/04/27 08:40:12;;;;;;;6.28;3.90;;;;;;;12.06;30.65;101618.94;5038521;28;20053;-74
2023/04/27 08:42:53;;;;;;;5.70;3.65;;;;;;;12.13;30.06;101628.41;5041031;28;20037;-74
2023/04/27 08:45:22;;;;;;;6.65;3.42;;;;;;;12.18;30.57;101618.94;5046800;28;20041;-73
2023/04/27 08:47:50;;;;;;;5.10;3.47;;;;;;;12.25;30.55;101615.56;5043803;28;20142;-73
2023/04/27 08:50:20;;;;;;;7.47;4.00;;;;;;;12.32;30.56;101622.28;5045537;28;20041;-74
2023/04/27 08:52:48;;;;;;;7.03;3.90;;;;;;;12.36;30.11;101615.56;5045812;28;20104;-74
2023/04/27 08:55:16;;;;;;;5.05;3.13;;;;;;;12.40;29.84;101617.03;5045820;28;20037;-73
2023/04/27 08:57:55;;;;;;;6.32;3.25;;;;;;;12.46;28.59;101619.25;5045270;28;20045;-73
2023/04/27 09:00:24;;;;;;;6.05;3.13;;;;;;;12.48;29.88;101617.25;5040223;28;20056;-74
2023/04/27 09:02:52;;;;;;;5.40;3.20;;;;;;;12.53;29.43;101618.75;5045528;28;20449;-74
2023/04/27 09:05:23;;;;;;;4.88;3.10;;;;;;;12.59;29.15;101610.88;5046298;28;20076;-74
2023/04/27 09:07:59;;;;;;;5.85;3.60;;;;;;;12.63;28.52;101615.13;5041304;28;20064;-74
2023/04/27 09:10:28;;;;;;;5.32;3.55;;;;;;;12.64;29.60;101605.88;5046272;28;20041;-73
2023/04/27 09:12:57;;;;;;;5.10;4.00;;;;;;;12.66;29.29;101608.50;5038168;28;20058;-74
2023/04/27 09:15:25;;;;;;;6.32;3.78;;;;;;;12.66;28.81;101603.88;5046364;28;20558;-74
2023/04/27 09:17:55;;;;;;;6.22;3.78;;;;;;;12.69;28.71;101611.88;5045526;28;20342;-75
2023/04/27 09:20:25;;;;;;;6.40;3.58;;;;;;;12.70;28.51;101613.63;5046246;28;20048;-74
2023/04/27 09:22:54;;;;;;;6.60;3.90;;;;;;;12.69;28.99;101608.25;5043499;28;20060;-74
2023/04/27 09:25:24;;;;;;;6.28;3.55;;;;;;;12.71;28.66;101604.34;5046092;28;20044;-74
2023/04/27 09:27:52;;;;;;;6.03;3.53;;;;;;;12.73;28.47;101610.59;5044963;28;20060;-74
2023/04/27 09:30:20;;;;;;;7.10;4.30;;;;;;;12.74;28.82;101603.22;5045693;28;20041;-75
2023/04/27 09:32:53;;;;;;;5.38;3.55;;;;;;;12.78;27.76;101597.38;5044331;28;20486;-74
2023/04/27 09:35:23;;;;;;;6.60;3.47;;;;;;;12.79;28.53;101601.84;5046436;28;20411;-74
2023/04/27 09:37:53;;;;;;;6.47;3.90;;;;;;;12.82;28.31;101595.22;5047156;28;20554;-74
2023/04/27 09:40:25;;;;;;;6.25;3.60;;;;;;;12.84;28.45;101598.72;5047442;28;20053;-74
2023/04/27 09:42:54;;;;;;;8.02;3.70;;;;;;;12.84;28.69;101594.09;5049312;28;20045;-74
2023/04/27 09:45:23;;;;;;;6.10;3.70;;;;;;;12.87;28.60;101599.28;5049652;28;20633;-74
2023/04/27 09:47:50;;;;;;;7.20;4.18;;;;;;;12.88;28.42;101592.81;5047972;28;20048;-74
2023/04/27 09:50:19;;;;;;;7.35;3.90;;;;;;;12.91;28.44;101586.19;5051725;28;20045;-74
2023/04/27 09:52:47;;;;;;;6.47;4.18;;;;;;;12.93;28.59;101597.91;5047628;28;20124;-74
2023/04/27 09:55:19;;;;;;;5.35;3.50;;;;;;;12.99;27.90;101593.75;5048685;28;20511;-74
2023/04/27 09:57:55;;;;;;;5.85;3.55;;;;;;;13.00;27.76;101588.16;5048553;28;20071;-74
2023/04/27 10:00:37;;;;;;;6.72;3.45;;;;;;;13.06;27.55;101576.59;5049555;28;20080;-74
2023/04/27 10:03:17;;;;;;;6.32;3.42;;;;;;;13.12;27.60;101573.31;5047020;28;20103;-74
2023/04/27 10:06:24;;;;;;;7.97;3.22;;;;;;;13.18;27.68;101583.81;5046632;28;20113;-73
2023/04/27 10:08:52;;;;;;;6.57;3.90;;;;;;;13.22;28.26;101581.63;5026089;28;20073;-74
2023/04/27 10:11:21;;;;;;;6.70;3.90;;;;;;;13.30;28.48;101575.47;5048343;28;20052;-74
2023/04/27 10:13:54;;;;;;;6.07;3.55;;;;;;;13.36;28.12;101569.44;5049452;28;20460;-74
2023/04/27 10:16:22;;;;;;;;;;;;;;;13.09;28.38;101569.97;5048188;28;20079;-74
2023/04/27 10:18:55;;;;;;;5.93;3.40;;;;;;;13.39;27.28;101570.03;5049038;28;19920;-75
2023/04/27 10:21:23;;;;;;;;;;;;;;;13.14;28.39;101564.94;5049616;28;20049;-74
2023/04/27 10:23:53;;;;;;;4.88;3.47;;;;;;;13.42;28.39;101556.03;5041957;28;19946;-74
2023/04/27 10:26:26;;;;;;;5.05;3.42;;;;;;;13.50;27.31;101553.47;5046298;28;20065;-74
2023/04/27 10:29:04;;;;;;;6.13;3.20;;;;;;;13.51;27.58;101555.22;5047845;28;20512;-74
2023/04/27 10:31:32;;;;;;;5.10;3.70;;;;;;;13.50;27.77;101547.97;5045776;28;20056;-75
2023/04/27 10:34:08;;;;;;;4.72;3.35;;;;;;;13.54;26.91;101541.16;5055738;28;20055;-74
2023/04/27 10:36:37;;;;;;;5.90;3.75;;;;;;;13.52;27.28;101556.09;5048845;28;20099;-74
2023/04/27 10:39:15;;;;;;;5.63;3.20;;;;;;;13.55;27.14;101545.66;5047451;28;20045;-74
2023/04/27 10:41:53;;;;;;;4.78;3.10;;;;;;;13.57;26.91;101542.81;5047077;28;20479;-75
2023/04/27 10:44:27;;;;;;;6.15;3.40;;;;;;;13.58;27.05;101542.69;5046865;28;20120;-75
2023/04/27 10:46:56;;;;;;;6.70;3.58;;;;;;;13.59;27.53;101538.06;5040893;28;20069;-75
2023/04/27 10:49:24;;;;;;;5.53;4.00;;;;;;;13.59;26.91;101533.44;5043395;28;20048;-75
2023/04/27 10:51:51;;;;;;;6.43;3.75;;;;;;;13.60;26.75;101537.06;5045979;28;20057;-75
2023/04/27 10:54:19;;;;;;;6.82;4.00;;;;;;;13.59;26.55;101533.44;5046705;28;20379;-75
2023/04/27 10:56:51;;;;;;;5.00;3.38;;;;;;;13.61;27.11;101533.28;5046475;28;20110;-76
2023/04/27 10:59:20;;;;;;;5.03;3.45;;;;;;;13.61;27.23;101539.63;5050488;28;20068;-74
2023/04/27 11:01:50;;;;;;;6.57;3.42;;;;;;;13.65;27.16;101523.75;5047697;28;20451;-74
2023/04/27 11:04:18;;;;;;;5.18;3.30;;;;;;;13.66;26.70;101530.13;5049598;28;20412;-74
2023/04/27 11:06:46;;;;;;;5.35;3.38;;;;;;;13.70;26.99;101528.81;5047939;28;20060;-74
2023/04/27 11:09:25;;;;;;;6.22;3.33;;;;;;;13.74;25.96;101536.66;5042911;28;20080;-75
2023/04/27 11:11:54;;;;;;;6.40;3.25;;;;;;;13.74;26.73;101538.56;5047432;28;20041;-75
2023/04/27 11:14:22;;;;;;;4.53;3.05;;;;;;;13.76;26.46;101542.03;5049180;28;20048;-75
2023/04/27 11:16:50;;;;;;;6.13;3.28;;;;;;;13.77;26.37;101532.78;5047852;28;20056;-74
2023/04/27 11:19:18;;;;;;;4.43;3.20;;;;;;;13.79;26.35;101531.59;5049333;28;20092;-75
2023/04/27 11:21:46;;;;;;;5.15;3.42;;;;;;;13.80;26.33;101524.22;5046641;28;20423;-74
2023/04/27 11:24:14;;;;;;;6.18;4.05;;;;;;;13.80;25.70;101530.59;5042876;28;20044;-74
2023/04/27 11:26:42;;;;;;;5.90;3.80;;;;;;;13.81;25.53;101523.22;5048110;28;20151;-74
2023/04/27 11:29:12;;;;;;;5.90;3.58;;;;;;;13.84;25.40;101521.06;5048323;28;20052;-74
2023/04/27 11:31:46;;;;;;;6.28;3.67;;;;;;;13.83;26.02;101516.59;5046702;28;20064;-74
2023/04/27 11:34:20;;;;;;;5.78;3.42;;;;;;;13.85;25.20;101517.31;5048430;28;20047;-74
2023/04/27 11:37:00;;;;;;;5.82;3.42;;;;;;;13.86;25.94;101518.19;5048050;28;20615;-74
2023/04/27 11:39:34;;;;;;;5.78;3.45;;;;;;;13.88;26.09;101510.66;5039852;28;20523;-76
2023/04/27 11:42:16;;;;;;;7.15;3.10;;;;;;;13.91;26.32;101508.50;5051575;28;20075;-74